Delta Qualiflight

METAR

KFTW 291539Z 31010KT 10SM OVC008 08/07 A3014 RMK AO2 T00780067

TAF

TAF AMD KFTW 291500Z 2915/3012 35008KT P6SM SCT009 OVC018 TEMPO 2915/2916 P6SM BKN009 FM291600 33015KT P6SM OVC015 FM291900 34017KT P6SM OVC025 FM292100 34019KT P6SM BKN040 FM300200 34018G28KT P6SM SKC FM301100 35015KT P6SM SKC